Hovedside
METAR-TAF:

METAR-TAF

Lufthavner :

Senai internasjonale lufthavn

Johor Bahru, Malaysia

breddegrad: 01-38N, lengdegrad: 103-40E, høyde over havet: 37 m

Gjeldene værobservasjon

Denne rapporten ble laget for 1 time og 24 minutter siden, klokken 01:00 UTC
Vind 4 kt fra Sør-sørvest, skiftende mellom Sørøst og Vest
Temperatur 25°C
Luftfuktighet 94%
Trykk 1011 hPa
Sikt 10 km eller mer
Få skyer i en høyde av 1200 ft
lett regn,

METAR: WMKJ 220100Z 21004KT 140V280 9999 -RA FEW012 25/24 Q1011

Tid: 10:24 (02:24 UTC)

Varsel

Denne rapporten ble laget for 3 timer og 24 minutter siden, klokken 23:00 UTC
Varsel gyldig fra 22. klokken 00 UTC til 23. klokken 00 UTC
Vind 3 kt fra skiftende retning
Sikt 10 km eller mer
Få skyer i en høyde av 1000 ft
Midlertidig
fra 22. klokken 00 UTC til 22. klokken 04 UTC
Sikt: 5000 m
Få skyer i en høyde av 1700 ft, Bygeskyer.
Spredte skyer i en høyde av 1800 ft
torden, lett regn,

TAF: WMKJ 212300Z 2200/2300 VRB03KT 9999 FEW010 TEMPO 2200/2204 5000 -TSRA FEW017CB SCT018

Værobservasjoner og værvarsel for over 4000 flyplasser (METAR- og TAF-rapporter).

Tilgjengelige stasjoner er representert av de røde og gule prikkene på kartet.

Hold musepekeren over prikken for å se navnet på stasjonen.

Klikk så for å se værobservasjoner og -varsler.

For å forandre kartet kan du klikke på den grønne knappen med svart kryss for å zoome inn, på den grønne knappen med strek for å zoome ut, eller på de grønne pilene for å se tilstøtende kart.


METAR-TAF: